sensor_id;sensor_type;location;lat;lon;timestamp;P1;durP1;ratioP1;P2;durP2;ratioP2
75616;SDS011;64200;55.426;37.758;2023-07-31T00:01:09;4.27;;;2.67;;
75616;SDS011;64200;55.426;37.758;2023-07-31T00:06:09;4.78;;;2.42;;
75616;SDS011;64200;55.426;37.758;2023-07-31T00:11:10;5.70;;;2.73;;
75616;SDS011;64200;55.426;37.758;2023-07-31T00:16:10;3.97;;;2.47;;
75616;SDS011;64200;55.426;37.758;2023-07-31T00:21:11;4.22;;;2.50;;
75616;SDS011;64200;55.426;37.758;2023-07-31T00:26:11;5.13;;;2.40;;
75616;SDS011;64200;55.426;37.758;2023-07-31T00:31:12;5.13;;;2.72;;
75616;SDS011;64200;55.426;37.758;2023-07-31T00:36:12;4.57;;;2.25;;
75616;SDS011;64200;55.426;37.758;2023-07-31T00:41:13;5.23;;;2.83;;
75616;SDS011;64200;55.426;37.758;2023-07-31T00:46:13;3.53;;;2.70;;
75616;SDS011;64200;55.426;37.758;2023-07-31T00:51:14;4.30;;;2.50;;
75616;SDS011;64200;55.426;37.758;2023-07-31T00:56:15;3.60;;;2.03;;
75616;SDS011;64200;55.426;37.758;2023-07-31T01:01:16;6.35;;;2.65;;
75616;SDS011;64200;55.426;37.758;2023-07-31T01:11:43;4.13;;;2.30;;
75616;SDS011;64200;55.426;37.758;2023-07-31T01:16:52;2.97;;;2.10;;
75616;SDS011;64200;55.426;37.758;2023-07-31T01:27:15;3.60;;;2.60;;
75616;SDS011;64200;55.426;37.758;2023-07-31T01:32:21;7.97;;;2.60;;
75616;SDS011;64200;55.426;37.758;2023-07-31T01:37:27;3.00;;;2.50;;
75616;SDS011;64200;55.426;37.758;2023-07-31T01:42:29;4.80;;;2.17;;
75616;SDS011;64200;55.426;37.758;2023-07-31T01:47:30;4.73;;;2.50;;
75616;SDS011;64200;55.426;37.758;2023-07-31T01:52:30;6.75;;;2.80;;
75616;SDS011;64200;55.426;37.758;2023-07-31T01:57:31;4.45;;;2.75;;
75616;SDS011;64200;55.426;37.758;2023-07-31T02:02:31;4.13;;;2.50;;
75616;SDS011;64200;55.426;37.758;2023-07-31T02:07:32;5.77;;;2.67;;
75616;SDS011;64200;55.426;37.758;2023-07-31T02:12:32;6.30;;;2.60;;
75616;SDS011;64200;55.426;37.758;2023-07-31T02:17:33;5.70;;;2.72;;
75616;SDS011;64200;55.426;37.758;2023-07-31T02:22:34;5.70;;;2.90;;
75616;SDS011;64200;55.426;37.758;2023-07-31T02:27:34;4.03;;;2.53;;
75616;SDS011;64200;55.426;37.758;2023-07-31T02:32:35;3.90;;;2.17;;
75616;SDS011;64200;55.426;37.758;2023-07-31T02:37:35;8.07;;;2.77;;
75616;SDS011;64200;55.426;37.758;2023-07-31T02:42:36;8.10;;;2.65;;
75616;SDS011;64200;55.426;37.758;2023-07-31T02:47:37;5.73;;;2.63;;
75616;SDS011;64200;55.426;37.758;2023-07-31T02:52:37;5.00;;;2.70;;
75616;SDS011;64200;55.426;37.758;2023-07-31T02:57:37;8.37;;;3.03;;
75616;SDS011;64200;55.426;37.758;2023-07-31T03:02:38;4.17;;;2.53;;
75616;SDS011;64200;55.426;37.758;2023-07-31T03:07:39;5.80;;;2.83;;
75616;SDS011;64200;55.426;37.758;2023-07-31T03:12:40;4.33;;;2.77;;
75616;SDS011;64200;55.426;37.758;2023-07-31T03:17:40;4.28;;;2.40;;
75616;SDS011;64200;55.426;37.758;2023-07-31T03:22:41;3.53;;;2.73;;
75616;SDS011;64200;55.426;37.758;2023-07-31T03:27:41;4.37;;;3.20;;
75616;SDS011;64200;55.426;37.758;2023-07-31T03:32:42;5.43;;;2.83;;
75616;SDS011;64200;55.426;37.758;2023-07-31T03:37:42;11.55;;;3.40;;
75616;SDS011;64200;55.426;37.758;2023-07-31T03:42:43;6.70;;;3.27;;
75616;SDS011;64200;55.426;37.758;2023-07-31T03:47:43;3.88;;;2.50;;
75616;SDS011;64200;55.426;37.758;2023-07-31T03:52:44;6.67;;;2.80;;
75616;SDS011;64200;55.426;37.758;2023-07-31T03:57:44;4.13;;;2.80;;
75616;SDS011;64200;55.426;37.758;2023-07-31T04:02:45;6.57;;;2.90;;
75616;SDS011;64200;55.426;37.758;2023-07-31T04:07:46;4.65;;;2.60;;
75616;SDS011;64200;55.426;37.758;2023-07-31T04:12:46;4.70;;;2.23;;
75616;SDS011;64200;55.426;37.758;2023-07-31T04:17:47;5.97;;;2.47;;
75616;SDS011;64200;55.426;37.758;2023-07-31T04:22:47;4.93;;;2.43;;
75616;SDS011;64200;55.426;37.758;2023-07-31T04:27:48;5.95;;;2.47;;
75616;SDS011;64200;55.426;37.758;2023-07-31T04:32:49;3.17;;;2.27;;
75616;SDS011;64200;55.426;37.758;2023-07-31T04:37:49;5.18;;;2.35;;
75616;SDS011;64200;55.426;37.758;2023-07-31T04:42:50;3.63;;;1.92;;
75616;SDS011;64200;55.426;37.758;2023-07-31T04:47:50;3.85;;;2.40;;
75616;SDS011;64200;55.426;37.758;2023-07-31T04:52:52;3.13;;;2.40;;
75616;SDS011;64200;55.426;37.758;2023-07-31T04:57:52;4.10;;;2.33;;
75616;SDS011;64200;55.426;37.758;2023-07-31T05:02:53;6.53;;;2.22;;
75616;SDS011;64200;55.426;37.758;2023-07-31T05:07:54;4.10;;;1.87;;
75616;SDS011;64200;55.426;37.758;2023-07-31T05:12:54;3.85;;;2.15;;
75616;SDS011;64200;55.426;37.758;2023-07-31T05:17:54;7.57;;;2.30;;
75616;SDS011;64200;55.426;37.758;2023-07-31T05:22:55;3.25;;;1.60;;
75616;SDS011;64200;55.426;37.758;2023-07-31T05:27:56;3.67;;;2.13;;
75616;SDS011;64200;55.426;37.758;2023-07-31T05:32:56;3.50;;;1.97;;
75616;SDS011;64200;55.426;37.758;2023-07-31T05:37:57;4.22;;;2.20;;
75616;SDS011;64200;55.426;37.758;2023-07-31T05:42:57;4.80;;;1.83;;
75616;SDS011;64200;55.426;37.758;2023-07-31T05:47:58;3.67;;;1.80;;
75616;SDS011;64200;55.426;37.758;2023-07-31T05:52:58;3.93;;;1.50;;
75616;SDS011;64200;55.426;37.758;2023-07-31T05:57:59;4.63;;;1.77;;
75616;SDS011;64200;55.426;37.758;2023-07-31T06:02:59;2.20;;;1.45;;
75616;SDS011;64200;55.426;37.758;2023-07-31T06:08:00;4.50;;;1.57;;
75616;SDS011;64200;55.426;37.758;2023-07-31T06:13:01;2.10;;;1.10;;
75616;SDS011;64200;55.426;37.758;2023-07-31T06:18:01;2.93;;;1.40;;
75616;SDS011;64200;55.426;37.758;2023-07-31T06:23:03;3.70;;;1.90;;
75616;SDS011;64200;55.426;37.758;2023-07-31T06:28:03;1.75;;;1.23;;
75616;SDS011;64200;55.426;37.758;2023-07-31T06:33:04;3.07;;;1.37;;
75616;SDS011;64200;55.426;37.758;2023-07-31T06:38:04;1.93;;;1.00;;
75616;SDS011;64200;55.426;37.758;2023-07-31T06:43:05;3.67;;;1.40;;
75616;SDS011;64200;55.426;37.758;2023-07-31T06:48:09;3.63;;;1.58;;
75616;SDS011;64200;55.426;37.758;2023-07-31T06:53:10;2.72;;;1.42;;
75616;SDS011;64200;55.426;37.758;2023-07-31T06:58:10;4.32;;;1.60;;
75616;SDS011;64200;55.426;37.758;2023-07-31T07:03:11;3.37;;;1.73;;
75616;SDS011;64200;55.426;37.758;2023-07-31T07:08:14;3.60;;;1.42;;
75616;SDS011;64200;55.426;37.758;2023-07-31T07:13:15;1.77;;;1.10;;
75616;SDS011;64200;55.426;37.758;2023-07-31T07:18:16;2.20;;;1.60;;
75616;SDS011;64200;55.426;37.758;2023-07-31T07:23:17;2.25;;;1.10;;
75616;SDS011;64200;55.426;37.758;2023-07-31T07:28:17;3.42;;;1.30;;
75616;SDS011;64200;55.426;37.758;2023-07-31T07:33:18;1.80;;;1.05;;
75616;SDS011;64200;55.426;37.758;2023-07-31T07:38:19;3.45;;;1.33;;
75616;SDS011;64200;55.426;37.758;2023-07-31T07:43:19;1.98;;;1.15;;
75616;SDS011;64200;55.426;37.758;2023-07-31T07:48:20;2.57;;;1.20;;
75616;SDS011;64200;55.426;37.758;2023-07-31T07:58:24;4.77;;;1.40;;
75616;SDS011;64200;55.426;37.758;2023-07-31T08:03:24;2.05;;;1.10;;
75616;SDS011;64200;55.426;37.758;2023-07-31T08:08:26;4.13;;;1.60;;
75616;SDS011;64200;55.426;37.758;2023-07-31T08:13:28;1.30;;;1.00;;
75616;SDS011;64200;55.426;37.758;2023-07-31T08:18:28;3.13;;;1.63;;
75616;SDS011;64200;55.426;37.758;2023-07-31T08:23:29;2.38;;;1.13;;
75616;SDS011;64200;55.426;37.758;2023-07-31T08:28:29;3.72;;;1.10;;
75616;SDS011;64200;55.426;37.758;2023-07-31T08:33:30;1.30;;;1.00;;
75616;SDS011;64200;55.426;37.758;2023-07-31T08:38:31;2.88;;;1.27;;
75616;SDS011;64200;55.426;37.758;2023-07-31T08:43:32;2.25;;;1.10;;
75616;SDS011;64200;55.426;37.758;2023-07-31T08:48:33;1.50;;;1.27;;
75616;SDS011;64200;55.426;37.758;2023-07-31T08:53:37;2.00;;;1.23;;
75616;SDS011;64200;55.426;37.758;2023-07-31T08:58:37;2.35;;;1.30;;
75616;SDS011;64200;55.426;37.758;2023-07-31T09:03:39;2.20;;;1.38;;
75616;SDS011;64200;55.426;37.758;2023-07-31T09:08:41;2.58;;;1.50;;
75616;SDS011;64200;55.426;37.758;2023-07-31T09:13:43;2.72;;;1.30;;
75616;SDS011;64200;55.426;37.758;2023-07-31T09:18:53;2.40;;;1.50;;
75616;SDS011;64200;55.426;37.758;2023-07-31T09:23:56;2.83;;;1.90;;
75616;SDS011;64200;55.426;37.758;2023-07-31T09:28:58;1.30;;;1.20;;
75616;SDS011;64200;55.426;37.758;2023-07-31T09:33:59;2.20;;;1.73;;
75616;SDS011;64200;55.426;37.758;2023-07-31T09:39:03;3.03;;;1.85;;
75616;SDS011;64200;55.426;37.758;2023-07-31T09:44:04;3.17;;;2.08;;
75616;SDS011;64200;55.426;37.758;2023-07-31T09:54:12;2.08;;;1.30;;
75616;SDS011;64200;55.426;37.758;2023-07-31T09:59:22;1.65;;;1.38;;
75616;SDS011;64200;55.426;37.758;2023-07-31T10:04:24;3.28;;;1.50;;
75616;SDS011;64200;55.426;37.758;2023-07-31T10:09:28;2.90;;;1.83;;
75616;SDS011;64200;55.426;37.758;2023-07-31T10:14:31;3.72;;;1.73;;
75616;SDS011;64200;55.426;37.758;2023-07-31T10:19:32;3.03;;;2.10;;
75616;SDS011;64200;55.426;37.758;2023-07-31T10:24:35;2.90;;;1.83;;
75616;SDS011;64200;55.426;37.758;2023-07-31T10:29:37;3.10;;;1.83;;
75616;SDS011;64200;55.426;37.758;2023-07-31T10:34:39;2.13;;;1.23;;
75616;SDS011;64200;55.426;37.758;2023-07-31T10:39:40;4.82;;;2.58;;
75616;SDS011;64200;55.426;37.758;2023-07-31T10:44:46;1.60;;;1.50;;
75616;SDS011;64200;55.426;37.758;2023-07-31T10:49:46;3.83;;;2.00;;
75616;SDS011;64200;55.426;37.758;2023-07-31T10:55:12;3.55;;;1.90;;
75616;SDS011;64200;55.426;37.758;2023-07-31T11:05:42;3.50;;;1.90;;
75616;SDS011;64200;55.426;37.758;2023-07-31T11:10:45;2.53;;;1.65;;
75616;SDS011;64200;55.426;37.758;2023-07-31T11:15:46;2.20;;;1.60;;
75616;SDS011;64200;55.426;37.758;2023-07-31T11:20:47;3.97;;;1.60;;
75616;SDS011;64200;55.426;37.758;2023-07-31T11:25:48;2.50;;;1.50;;
75616;SDS011;64200;55.426;37.758;2023-07-31T11:30:49;1.55;;;1.30;;
75616;SDS011;64200;55.426;37.758;2023-07-31T11:35:50;4.30;;;1.50;;
75616;SDS011;64200;55.426;37.758;2023-07-31T11:40:51;1.70;;;1.20;;
75616;SDS011;64200;55.426;37.758;2023-07-31T11:45:55;2.10;;;1.67;;
75616;SDS011;64200;55.426;37.758;2023-07-31T11:50:58;2.30;;;1.60;;
75616;SDS011;64200;55.426;37.758;2023-07-31T11:56:00;2.80;;;1.50;;
75616;SDS011;64200;55.426;37.758;2023-07-31T12:01:01;1.92;;;1.52;;
75616;SDS011;64200;55.426;37.758;2023-07-31T12:06:02;2.63;;;1.20;;
75616;SDS011;64200;55.426;37.758;2023-07-31T12:11:04;1.95;;;1.52;;
75616;SDS011;64200;55.426;37.758;2023-07-31T12:21:07;4.00;;;1.90;;
75616;SDS011;64200;55.426;37.758;2023-07-31T12:26:09;2.35;;;1.13;;
75616;SDS011;64200;55.426;37.758;2023-07-31T12:31:18;1.83;;;1.52;;
75616;SDS011;64200;55.426;37.758;2023-07-31T12:36:21;2.08;;;1.40;;
75616;SDS011;64200;55.426;37.758;2023-07-31T12:46:23;1.87;;;1.47;;
75616;SDS011;64200;55.426;37.758;2023-07-31T12:51:24;2.73;;;1.70;;
75616;SDS011;64200;55.426;37.758;2023-07-31T12:56:24;2.15;;;1.40;;
75616;SDS011;64200;55.426;37.758;2023-07-31T13:01:25;3.15;;;1.60;;
75616;SDS011;64200;55.426;37.758;2023-07-31T13:06:25;3.63;;;1.80;;
75616;SDS011;64200;55.426;37.758;2023-07-31T13:11:26;2.90;;;1.75;;
75616;SDS011;64200;55.426;37.758;2023-07-31T13:16:26;3.53;;;1.67;;
75616;SDS011;64200;55.426;37.758;2023-07-31T13:21:28;4.88;;;3.33;;
75616;SDS011;64200;55.426;37.758;2023-07-31T13:26:29;4.00;;;1.60;;
75616;SDS011;64200;55.426;37.758;2023-07-31T13:31:29;3.67;;;2.23;;
75616;SDS011;64200;55.426;37.758;2023-07-31T13:36:30;3.93;;;1.93;;
75616;SDS011;64200;55.426;37.758;2023-07-31T13:41:30;3.17;;;1.85;;
75616;SDS011;64200;55.426;37.758;2023-07-31T13:46:31;4.10;;;3.10;;
75616;SDS011;64200;55.426;37.758;2023-07-31T13:51:32;3.63;;;1.90;;
75616;SDS011;64200;55.426;37.758;2023-07-31T13:56:33;3.15;;;1.80;;
75616;SDS011;64200;55.426;37.758;2023-07-31T14:01:34;2.05;;;1.83;;
75616;SDS011;64200;55.426;37.758;2023-07-31T14:06:34;3.50;;;2.25;;
75616;SDS011;64200;55.426;37.758;2023-07-31T14:11:35;3.08;;;1.85;;
75616;SDS011;64200;55.426;37.758;2023-07-31T14:16:36;5.22;;;1.85;;
75616;SDS011;64200;55.426;37.758;2023-07-31T14:21:36;3.80;;;2.30;;
75616;SDS011;64200;55.426;37.758;2023-07-31T14:26:37;4.57;;;2.00;;
75616;SDS011;64200;55.426;37.758;2023-07-31T14:31:37;3.42;;;2.08;;
75616;SDS011;64200;55.426;37.758;2023-07-31T14:36:38;4.28;;;2.42;;
75616;SDS011;64200;55.426;37.758;2023-07-31T14:41:39;4.20;;;2.53;;
75616;SDS011;64200;55.426;37.758;2023-07-31T14:46:39;3.47;;;2.25;;
75616;SDS011;64200;55.426;37.758;2023-07-31T14:51:40;2.60;;;1.80;;
75616;SDS011;64200;55.426;37.758;2023-07-31T14:56:40;6.70;;;2.30;;
75616;SDS011;64200;55.426;37.758;2023-07-31T15:01:41;6.72;;;2.45;;
75616;SDS011;64200;55.426;37.758;2023-07-31T15:06:41;8.73;;;2.22;;
75616;SDS011;64200;55.426;37.758;2023-07-31T15:11:42;14.63;;;6.13;;
75616;SDS011;64200;55.426;37.758;2023-07-31T15:16:42;7.00;;;3.60;;
75616;SDS011;64200;55.426;37.758;2023-07-31T15:21:43;3.65;;;2.83;;
75616;SDS011;64200;55.426;37.758;2023-07-31T15:26:43;7.40;;;2.67;;
75616;SDS011;64200;55.426;37.758;2023-07-31T15:31:44;4.53;;;2.80;;
75616;SDS011;64200;55.426;37.758;2023-07-31T15:36:45;5.78;;;2.25;;
75616;SDS011;64200;55.426;37.758;2023-07-31T15:41:46;7.10;;;2.90;;
75616;SDS011;64200;55.426;37.758;2023-07-31T15:46:47;4.82;;;2.60;;
75616;SDS011;64200;55.426;37.758;2023-07-31T15:51:48;6.70;;;2.90;;
75616;SDS011;64200;55.426;37.758;2023-07-31T15:56:48;5.75;;;3.30;;
75616;SDS011;64200;55.426;37.758;2023-07-31T16:01:49;4.82;;;2.42;;
75616;SDS011;64200;55.426;37.758;2023-07-31T16:06:50;14.60;;;7.65;;
75616;SDS011;64200;55.426;37.758;2023-07-31T16:11:50;3.00;;;2.30;;
75616;SDS011;64200;55.426;37.758;2023-07-31T16:16:51;8.52;;;3.80;;
75616;SDS011;64200;55.426;37.758;2023-07-31T16:21:51;10.05;;;5.35;;
75616;SDS011;64200;55.426;37.758;2023-07-31T16:26:52;9.85;;;5.70;;
75616;SDS011;64200;55.426;37.758;2023-07-31T16:31:52;5.63;;;4.28;;
75616;SDS011;64200;55.426;37.758;2023-07-31T16:36:53;5.65;;;3.92;;
75616;SDS011;64200;55.426;37.758;2023-07-31T16:41:56;7.00;;;3.83;;
75616;SDS011;64200;55.426;37.758;2023-07-31T16:46:57;5.63;;;3.10;;
75616;SDS011;64200;55.426;37.758;2023-07-31T16:51:58;12.27;;;5.22;;
75616;SDS011;64200;55.426;37.758;2023-07-31T16:56:58;15.87;;;8.87;;
75616;SDS011;64200;55.426;37.758;2023-07-31T17:01:59;12.85;;;7.57;;
75616;SDS011;64200;55.426;37.758;2023-07-31T17:07:00;9.60;;;4.90;;
75616;SDS011;64200;55.426;37.758;2023-07-31T17:12:00;13.55;;;5.85;;
75616;SDS011;64200;55.426;37.758;2023-07-31T17:17:02;11.98;;;4.88;;
75616;SDS011;64200;55.426;37.758;2023-07-31T17:22:03;9.57;;;5.05;;
75616;SDS011;64200;55.426;37.758;2023-07-31T17:27:03;12.10;;;7.80;;
75616;SDS011;64200;55.426;37.758;2023-07-31T17:32:04;20.55;;;12.10;;
75616;SDS011;64200;55.426;37.758;2023-07-31T17:37:05;19.40;;;9.18;;
75616;SDS011;64200;55.426;37.758;2023-07-31T17:42:06;18.08;;;10.65;;
75616;SDS011;64200;55.426;37.758;2023-07-31T17:47:06;18.92;;;8.60;;
75616;SDS011;64200;55.426;37.758;2023-07-31T17:52:07;10.07;;;6.20;;
75616;SDS011;64200;55.426;37.758;2023-07-31T17:57:07;13.15;;;6.88;;
75616;SDS011;64200;55.426;37.758;2023-07-31T18:02:08;12.20;;;6.93;;
75616;SDS011;64200;55.426;37.758;2023-07-31T18:07:08;10.67;;;5.80;;
75616;SDS011;64200;55.426;37.758;2023-07-31T18:12:09;9.05;;;6.05;;
75616;SDS011;64200;55.426;37.758;2023-07-31T18:17:09;13.95;;;6.22;;
75616;SDS011;64200;55.426;37.758;2023-07-31T18:22:11;13.93;;;5.75;;
75616;SDS011;64200;55.426;37.758;2023-07-31T18:27:12;10.80;;;5.03;;
75616;SDS011;64200;55.426;37.758;2023-07-31T18:32:14;8.38;;;4.53;;
75616;SDS011;64200;55.426;37.758;2023-07-31T18:37:16;11.70;;;4.03;;
75616;SDS011;64200;55.426;37.758;2023-07-31T18:42:17;9.17;;;4.40;;
75616;SDS011;64200;55.426;37.758;2023-07-31T18:47:17;8.77;;;3.47;;
75616;SDS011;64200;55.426;37.758;2023-07-31T18:52:18;8.90;;;4.55;;
75616;SDS011;64200;55.426;37.758;2023-07-31T18:57:18;8.55;;;3.30;;
75616;SDS011;64200;55.426;37.758;2023-07-31T19:02:19;7.88;;;3.80;;
75616;SDS011;64200;55.426;37.758;2023-07-31T19:07:19;9.77;;;4.03;;
75616;SDS011;64200;55.426;37.758;2023-07-31T19:12:20;5.33;;;3.47;;
75616;SDS011;64200;55.426;37.758;2023-07-31T19:17:20;8.48;;;3.90;;
75616;SDS011;64200;55.426;37.758;2023-07-31T19:22:21;7.75;;;3.70;;
75616;SDS011;64200;55.426;37.758;2023-07-31T19:27:21;9.17;;;4.13;;
75616;SDS011;64200;55.426;37.758;2023-07-31T19:32:22;8.90;;;4.63;;
75616;SDS011;64200;55.426;37.758;2023-07-31T19:37:23;10.63;;;3.45;;
75616;SDS011;64200;55.426;37.758;2023-07-31T19:42:24;7.30;;;3.80;;
75616;SDS011;64200;55.426;37.758;2023-07-31T19:47:24;8.27;;;3.70;;
75616;SDS011;64200;55.426;37.758;2023-07-31T19:52:25;11.13;;;4.83;;
75616;SDS011;64200;55.426;37.758;2023-07-31T19:57:25;5.77;;;3.50;;
75616;SDS011;64200;55.426;37.758;2023-07-31T20:02:26;8.57;;;3.17;;
75616;SDS011;64200;55.426;37.758;2023-07-31T20:07:27;9.20;;;4.90;;
75616;SDS011;64200;55.426;37.758;2023-07-31T20:12:28;8.50;;;5.27;;
75616;SDS011;64200;55.426;37.758;2023-07-31T20:17:28;7.35;;;4.28;;
75616;SDS011;64200;55.426;37.758;2023-07-31T20:22:30;6.95;;;4.90;;
75616;SDS011;64200;55.426;37.758;2023-07-31T20:27:30;6.47;;;4.17;;
75616;SDS011;64200;55.426;37.758;2023-07-31T20:32:31;7.18;;;4.90;;
75616;SDS011;64200;55.426;37.758;2023-07-31T20:37:32;12.50;;;5.97;;
75616;SDS011;64200;55.426;37.758;2023-07-31T20:42:32;14.40;;;6.50;;
75616;SDS011;64200;55.426;37.758;2023-07-31T20:47:33;9.52;;;4.85;;
75616;SDS011;64200;55.426;37.758;2023-07-31T20:52:33;12.57;;;6.00;;
75616;SDS011;64200;55.426;37.758;2023-07-31T20:57:34;10.87;;;5.73;;
75616;SDS011;64200;55.426;37.758;2023-07-31T21:02:34;12.03;;;6.80;;
75616;SDS011;64200;55.426;37.758;2023-07-31T21:07:35;9.27;;;6.20;;
75616;SDS011;64200;55.426;37.758;2023-07-31T21:12:35;9.95;;;5.57;;
75616;SDS011;64200;55.426;37.758;2023-07-31T21:17:38;18.35;;;8.80;;
75616;SDS011;64200;55.426;37.758;2023-07-31T21:22:39;10.63;;;6.32;;
75616;SDS011;64200;55.426;37.758;2023-07-31T21:27:39;7.60;;;5.57;;
75616;SDS011;64200;55.426;37.758;2023-07-31T21:32:40;10.02;;;5.22;;
75616;SDS011;64200;55.426;37.758;2023-07-31T21:37:40;9.38;;;4.80;;
75616;SDS011;64200;55.426;37.758;2023-07-31T21:42:41;6.47;;;4.55;;
75616;SDS011;64200;55.426;37.758;2023-07-31T21:47:43;6.70;;;4.25;;
75616;SDS011;64200;55.426;37.758;2023-07-31T21:52:44;12.55;;;5.40;;
75616;SDS011;64200;55.426;37.758;2023-07-31T21:57:45;10.40;;;5.43;;
75616;SDS011;64200;55.426;37.758;2023-07-31T22:02:45;12.67;;;5.47;;
75616;SDS011;64200;55.426;37.758;2023-07-31T22:07:46;12.38;;;8.82;;
75616;SDS011;64200;55.426;37.758;2023-07-31T22:12:46;10.48;;;6.43;;
75616;SDS011;64200;55.426;37.758;2023-07-31T22:17:47;6.40;;;3.40;;
75616;SDS011;64200;55.426;37.758;2023-07-31T22:22:47;4.27;;;3.73;;
75616;SDS011;64200;55.426;37.758;2023-07-31T22:27:48;11.05;;;7.15;;
75616;SDS011;64200;55.426;37.758;2023-07-31T22:32:50;7.88;;;3.90;;
75616;SDS011;64200;55.426;37.758;2023-07-31T22:37:51;7.38;;;4.65;;
75616;SDS011;64200;55.426;37.758;2023-07-31T22:42:51;10.02;;;6.40;;
75616;SDS011;64200;55.426;37.758;2023-07-31T22:47:52;8.32;;;5.15;;
75616;SDS011;64200;55.426;37.758;2023-07-31T22:52:52;8.88;;;4.90;;
75616;SDS011;64200;55.426;37.758;2023-07-31T22:57:54;9.88;;;4.35;;
75616;SDS011;64200;55.426;37.758;2023-07-31T23:02:55;6.47;;;4.07;;
75616;SDS011;64200;55.426;37.758;2023-07-31T23:07:55;7.73;;;4.40;;
75616;SDS011;64200;55.426;37.758;2023-07-31T23:12:55;7.20;;;3.97;;
75616;SDS011;64200;55.426;37.758;2023-07-31T23:17:56;8.10;;;4.90;;
75616;SDS011;64200;55.426;37.758;2023-07-31T23:22:56;7.80;;;5.40;;
75616;SDS011;64200;55.426;37.758;2023-07-31T23:27:57;9.97;;;5.20;;
75616;SDS011;64200;55.426;37.758;2023-07-31T23:32:57;9.03;;;5.30;;
75616;SDS011;64200;55.426;37.758;2023-07-31T23:37:58;8.00;;;5.47;;
75616;SDS011;64200;55.426;37.758;2023-07-31T23:42:58;7.57;;;4.63;;
75616;SDS011;64200;55.426;37.758;2023-07-31T23:47:59;5.23;;;4.20;;
75616;SDS011;64200;55.426;37.758;2023-07-31T23:53:00;7.78;;;4.82;;
75616;SDS011;64200;55.426;37.758;2023-07-31T23:58:01;6.78;;;4.22;;
